Time;durP1;ratioP1;P1;durP2;ratioP2;P2;SDS_P1;SDS_P2;PMS_P1;PMS_P2;Temp;Humidity;BMP_temperature;BMP_pressure;BME280_temperature;BME280_humidity;BME280_pressure;Samples;Min_cycle;Max_cycle;Signal;HPM_P1;HPM_P2
2023/07/08 00:02:11;;;;;;;7.20;4.38;;;19.40;95.00;;;;;;5097777;28;20052;-58
2023/07/08 00:04:38;;;;;;;5.90;4.30;;;19.40;95.00;;;;;;5100264;28;20422;-58
2023/07/08 00:07:04;;;;;;;9.02;4.13;;;19.40;95.20;;;;;;5098296;28;20451;-58
2023/07/08 00:09:30;;;;;;;7.90;4.40;;;19.30;95.20;;;;;;5099121;28;20227;-58
2023/07/08 00:11:57;;;;;;;5.70;3.85;;;19.30;95.30;;;;;;5099582;28;20079;-58
2023/07/08 00:14:23;;;;;;;9.73;4.85;;;19.30;95.50;;;;;;5096735;28;20095;-58
2023/07/08 00:16:49;;;;;;;7.65;4.30;;;19.20;95.50;;;;;;5103344;28;20075;-58
2023/07/08 00:19:19;;;;;;;5.07;4.13;;;19.20;95.70;;;;;;5101833;28;20091;-58
2023/07/08 00:21:45;;;;;;;11.48;5.00;;;19.10;95.70;;;;;;5102953;28;20032;-58
2023/07/08 00:24:12;;;;;;;6.55;4.28;;;19.10;95.80;;;;;;5102257;28;20051;-57
2023/07/08 00:26:37;;;;;;;8.27;3.88;;;19.10;95.90;;;;;;5102118;28;20069;-58
2023/07/08 00:29:09;;;;;;;7.65;4.80;;;19.10;96.00;;;;;;5103203;28;20028;-58
2023/07/08 00:31:35;;;;;;;11.23;4.32;;;19.00;96.00;;;;;;5102012;28;20043;-58
2023/07/08 00:34:03;;;;;;;7.38;4.40;;;19.00;96.20;;;;;;5102457;28;20101;-58
2023/07/08 00:36:29;;;;;;;10.38;4.68;;;19.00;96.10;;;;;;5101536;28;20082;-58
2023/07/08 00:38:56;;;;;;;6.60;4.40;;;18.90;96.20;;;;;;5103984;28;20115;-58
2023/07/08 00:41:41;;;;;;;7.68;4.50;;;19.00;96.20;;;;;;5101616;28;20064;-57
2023/07/08 00:44:12;;;;;;;6.78;4.38;;;18.90;96.30;;;;;;5102368;28;20044;-58
2023/07/08 00:46:49;;;;;;;9.82;4.40;;;18.90;96.40;;;;;;5103145;28;20081;-58
2023/07/08 00:49:27;;;;;;;6.50;4.53;;;18.90;96.50;;;;;;5101438;28;20044;-58
2023/07/08 00:51:53;;;;;;;6.53;4.28;;;18.80;96.60;;;;;;5103591;28;20054;-58
2023/07/08 00:54:20;;;;;;;7.20;4.57;;;18.80;96.60;;;;;;5101840;28;20051;-57
2023/07/08 00:57:02;;;;;;;8.80;4.55;;;18.80;96.70;;;;;;5102630;28;20066;-58
2023/07/08 00:59:41;;;;;;;9.35;4.63;;;18.80;96.70;;;;;;5103107;28;20055;-58
2023/07/08 01:02:10;;;;;;;8.20;4.75;;;18.70;97.10;;;;;;5101074;28;20397;-58
2023/07/08 01:04:54;;;;;;;6.93;4.65;;;18.70;96.80;;;;;;5103561;28;20051;-58
2023/07/08 01:07:21;;;;;;;8.35;4.70;;;18.70;97.00;;;;;;5101742;28;20048;-57
2023/07/08 01:09:51;;;;;;;8.73;4.55;;;18.60;97.00;;;;;;5101582;28;20048;-58
2023/07/08 01:12:23;;;;;;;8.25;4.68;;;18.60;97.10;;;;;;5102724;28;20040;-57
2023/07/08 01:14:53;;;;;;;6.70;4.65;;;18.60;97.20;;;;;;5100862;28;20075;-56
2023/07/08 01:17:20;;;;;;;8.50;4.90;;;18.50;97.30;;;;;;5103090;28;20044;-58
2023/07/08 01:19:46;;;;;;;7.85;4.47;;;18.50;97.40;;;;;;5100936;28;20065;-58
2023/07/08 01:22:12;;;;;;;7.40;4.50;;;18.50;97.50;;;;;;5102878;28;20040;-59
2023/07/08 01:24:43;;;;;;;8.50;4.95;;;18.50;97.60;;;;;;5101810;28;20503;-58
2023/07/08 01:27:13;;;;;;;7.57;4.60;;;18.50;97.70;;;;;;5100694;28;20055;-58
2023/07/08 01:29:39;;;;;;;7.68;4.68;;;18.40;97.80;;;;;;5102634;28;20036;-58
2023/07/08 01:32:05;;;;;;;6.07;4.45;;;18.30;97.90;;;;;;5099251;28;20040;-58
2023/07/08 01:34:36;;;;;;;8.65;4.68;;;18.30;98.00;;;;;;5101630;28;20048;-58
2023/07/08 01:37:04;;;;;;;9.82;4.75;;;18.30;98.10;;;;;;5100893;28;20040;-58
2023/07/08 01:39:31;;;;;;;9.05;5.25;;;18.20;98.20;;;;;;5102018;28;20039;-58
2023/07/08 01:41:58;;;;;;;8.55;5.28;;;18.20;98.30;;;;;;5100461;28;20048;-58
2023/07/08 01:44:33;;;;;;;6.70;4.72;;;18.20;98.40;;;;;;5100783;28;20052;-57
2023/07/08 01:47:07;;;;;;;8.30;5.00;;;18.20;98.60;;;;;;5100910;28;20051;-58
2023/07/08 01:49:35;;;;;;;11.40;5.05;;;18.10;98.70;;;;;;5100185;28;20499;-58
2023/07/08 01:52:01;;;;;;;7.82;4.75;;;18.10;98.70;;;;;;5102686;28;20048;-58
2023/07/08 01:54:27;;;;;;;11.82;5.13;;;18.00;98.90;;;;;;5100998;28;20111;-58
2023/07/08 01:56:57;;;;;;;6.65;4.78;;;18.00;98.90;;;;;;5101424;28;20036;-58
2023/07/08 01:59:23;;;;;;;8.07;5.15;;;17.90;99.10;;;;;;5100525;28;20103;-58
2023/07/08 02:01:54;;;;;;;8.65;5.22;;;17.90;99.20;;;;;;5099119;28;20388;-58
2023/07/08 02:04:20;;;;;;;7.78;5.25;;;17.90;99.40;;;;;;5102073;28;20048;-58
2023/07/08 02:06:55;;;;;;;7.60;5.40;;;17.90;99.50;;;;;;5099828;28;20067;-58
2023/07/08 02:09:21;;;;;;;8.40;5.10;;;17.80;99.60;;;;;;5101521;28;20040;-58
2023/07/08 02:11:47;;;;;;;8.15;4.90;;;17.80;99.70;;;;;;5101138;28;20082;-58
2023/07/08 02:14:13;;;;;;;7.30;4.90;;;17.80;99.90;;;;;;5099237;28;20142;-58
2023/07/08 02:16:38;;;;;;;11.25;5.00;;;17.80;99.90;;;;;;5101528;28;20040;-58
2023/07/08 02:19:04;;;;;;;6.78;4.90;;;17.70;99.90;;;;;;5099856;28;20055;-58
2023/07/08 02:21:30;;;;;;;10.68;5.47;;;17.70;99.90;;;;;;5100209;28;20059;-58
2023/07/08 02:23:57;;;;;;;6.28;4.70;;;17.70;99.90;;;;;;5099583;28;20047;-58
2023/07/08 02:26:23;;;;;;;6.85;4.95;;;17.70;99.90;;;;;;5100407;28;20074;-58
2023/07/08 02:28:49;;;;;;;6.95;4.80;;;17.60;99.90;;;;;;5100377;28;20044;-57
2023/07/08 02:31:15;;;;;;;10.43;5.28;;;17.60;99.90;;;;;;5100538;28;20044;-58
2023/07/08 02:33:40;;;;;;;10.43;5.60;;;17.70;99.90;;;;;;5101155;28;20117;-58
2023/07/08 02:36:06;;;;;;;7.03;5.15;;;17.60;99.90;;;;;;5099568;28;20044;-58
2023/07/08 02:38:32;;;;;;;8.23;5.32;;;17.50;99.90;;;;;;5099047;28;20036;-58
2023/07/08 02:40:58;;;;;;;9.75;5.22;;;17.40;99.90;;;;;;5097665;28;20062;-58
2023/07/08 02:43:24;;;;;;;9.15;5.72;;;17.40;99.90;;;;;;5100414;28;20076;-58
2023/07/08 02:45:53;;;;;;;8.25;5.40;;;17.40;99.90;;;;;;5098933;28;20067;-58
2023/07/08 02:48:19;;;;;;;9.00;5.53;;;17.40;99.90;;;;;;5100000;28;20068;-58
2023/07/08 02:50:45;;;;;;;9.55;5.57;;;17.30;99.90;;;;;;5100737;28;20069;-58
2023/07/08 02:53:11;;;;;;;9.88;5.13;;;17.30;99.90;;;;;;5099242;28;20103;-58
2023/07/08 02:55:38;;;;;;;8.15;5.50;;;17.30;99.90;;;;;;5099683;28;20044;-57
2023/07/08 02:58:04;;;;;;;10.25;5.57;;;17.30;99.90;;;;;;5098752;28;20067;-58
2023/07/08 03:00:30;;;;;;;10.30;5.88;;;17.30;99.90;;;;;;5099839;28;20047;-58
2023/07/08 03:02:55;;;;;;;8.60;5.50;;;17.20;99.90;;;;;;5099477;28;20028;-58
2023/07/08 03:05:21;;;;;;;9.48;5.30;;;17.20;99.90;;;;;;5099767;28;20101;-57
2023/07/08 03:07:47;;;;;;;8.10;5.43;;;17.20;99.90;;;;;;5100568;28;20059;-58
2023/07/08 03:10:12;;;;;;;7.82;5.78;;;17.10;99.90;;;;;;5096738;28;20488;-58
2023/07/08 03:12:38;;;;;;;11.60;5.38;;;17.10;99.90;;;;;;5100788;28;20056;-57
2023/07/08 03:15:05;;;;;;;9.82;5.50;;;17.10;99.90;;;;;;5098649;28;20082;-58
2023/07/08 03:17:30;;;;;;;8.30;5.72;;;17.10;99.90;;;;;;5099565;28;20082;-58
2023/07/08 03:19:56;;;;;;;9.80;5.82;;;17.00;99.90;;;;;;5099046;28;20071;-57
2023/07/08 03:22:22;;;;;;;8.90;5.30;;;17.00;99.90;;;;;;5081651;28;20040;-58
2023/07/08 03:24:47;;;;;;;9.85;5.50;;;17.00;99.90;;;;;;5100223;28;20048;-57
2023/07/08 03:27:14;;;;;;;10.77;5.65;;;17.00;99.90;;;;;;5098694;28;20044;-58
2023/07/08 03:29:40;;;;;;;8.10;5.72;;;16.90;99.90;;;;;;5100463;28;20062;-58
2023/07/08 03:32:09;;;;;;;9.73;5.60;;;16.90;99.90;;;;;;5098247;28;20055;-58
2023/07/08 03:34:35;;;;;;;8.25;5.45;;;16.90;99.90;;;;;;5100616;28;20243;-58
2023/07/08 03:37:01;;;;;;;10.63;5.40;;;16.90;99.90;;;;;;5097311;28;20089;-58
2023/07/08 03:39:26;;;;;;;9.32;5.70;;;16.80;99.90;;;;;;5099580;28;20044;-58
2023/07/08 03:41:52;;;;;;;11.32;6.38;;;16.80;99.90;;;;;;5099894;28;20044;-57
2023/07/08 03:44:18;;;;;;;9.88;5.68;;;16.80;99.90;;;;;;5097138;28;20563;-58
2023/07/08 03:46:51;;;;;;;9.88;6.10;;;16.80;99.90;;;;;;5100116;28;20062;-58
2023/07/08 03:49:21;;;;;;;9.95;5.93;;;16.80;99.90;;;;;;5096395;28;20109;-58
2023/07/08 03:51:48;;;;;;;10.50;6.10;;;16.80;99.90;;;;;;5100565;28;20070;-58
2023/07/08 03:54:15;;;;;;;7.82;5.97;;;16.80;99.90;;;;;;5098489;28;20044;-57
2023/07/08 03:56:41;;;;;;;8.93;6.35;;;16.80;99.90;;;;;;5099592;28;20040;-58
2023/07/08 03:59:07;;;;;;;9.52;6.07;;;16.80;99.90;;;;;;5099826;28;20056;-57
2023/07/08 04:01:33;;;;;;;8.52;6.50;;;16.70;99.90;;;;;;5096484;28;20544;-58
2023/07/08 04:03:59;;;;;;;8.15;6.20;;;16.70;99.90;;;;;;5099739;28;20107;-58
2023/07/08 04:06:26;;;;;;;11.93;6.10;;;16.70;99.90;;;;;;5097842;28;20048;-58
2023/07/08 04:08:52;;;;;;;10.40;6.10;;;16.70;99.90;;;;;;5098792;28;20058;-58
2023/07/08 04:11:20;;;;;;;8.95;6.50;;;16.80;99.90;;;;;;5097951;28;20429;-57
2023/07/08 04:13:46;;;;;;;9.02;6.20;;;16.80;99.90;;;;;;5099580;28;20044;-59
2023/07/08 04:16:27;;;;;;;9.52;6.30;;;16.70;99.90;;;;;;5099442;28;20048;-57
2023/07/08 04:18:55;;;;;;;8.90;6.25;;;16.70;99.90;;;;;;5097918;28;20055;-58
2023/07/08 04:21:22;;;;;;;11.30;6.55;;;16.70;99.90;;;;;;5099968;28;20069;-58
2023/07/08 04:23:48;;;;;;;8.52;6.32;;;16.70;99.90;;;;;;5097737;28;20032;-58
2023/07/08 04:26:14;;;;;;;9.55;6.60;;;16.70;99.90;;;;;;5100135;28;20569;-58
2023/07/08 04:28:41;;;;;;;11.57;6.80;;;16.70;99.90;;;;;;5098302;28;20044;-57
2023/07/08 04:31:06;;;;;;;10.82;6.60;;;16.70;99.90;;;;;;5099000;28;20095;-58
2023/07/08 04:33:32;;;;;;;9.20;6.80;;;16.80;99.90;;;;;;5098196;28;20066;-57
2023/07/08 04:35:58;;;;;;;8.27;6.68;;;16.80;99.90;;;;;;5097835;28;20040;-58
2023/07/08 04:38:25;;;;;;;14.05;7.38;;;16.80;99.90;;;;;;5099610;28;20442;-58
2023/07/08 04:40:52;;;;;;;8.80;6.47;;;16.80;99.90;;;;;;5095988;28;20036;-58
2023/07/08 04:43:20;;;;;;;8.52;6.43;;;16.80;99.90;;;;;;5099870;28;20052;-58
2023/07/08 04:45:52;;;;;;;9.32;6.57;;;16.80;99.90;;;;;;5098380;28;20133;-57
2023/07/08 04:48:21;;;;;;;13.05;6.80;;;16.80;99.90;;;;;;5098433;28;20091;-58
2023/07/08 04:50:48;;;;;;;8.88;6.80;;;16.80;99.90;;;;;;5099464;28;20046;-58
2023/07/08 04:53:14;;;;;;;10.63;6.95;;;16.90;99.90;;;;;;5097615;28;20096;-58
2023/07/08 04:55:55;;;;;;;11.82;7.47;;;16.90;99.90;;;;;;5099601;28;20047;-58
2023/07/08 04:58:21;;;;;;;9.30;6.72;;;16.90;99.90;;;;;;5096567;28;20066;-57
2023/07/08 05:00:47;;;;;;;9.43;6.80;;;16.90;99.90;;;;;;5097988;28;20522;-58
2023/07/08 05:03:12;;;;;;;10.48;6.47;;;16.70;99.90;;;;;;5101226;28;20044;-57
2023/07/08 05:05:38;;;;;;;8.02;6.20;;;17.00;99.90;;;;;;5083330;28;20328;-58
2023/07/08 05:08:05;;;;;;;10.13;6.57;;;17.10;99.90;;;;;;5102758;28;20036;-58
2023/07/08 05:10:31;;;;;;;8.55;5.85;;;17.10;99.90;;;;;;5100611;28;20128;-58
2023/07/08 05:12:57;;;;;;;6.72;5.97;;;17.10;99.90;;;;;;5103203;28;20088;-58
2023/07/08 05:15:23;;;;;;;8.60;6.03;;;17.20;99.90;;;;;;5099774;28;20051;-58
2023/07/08 05:17:51;;;;;;;7.30;5.82;;;17.20;99.90;;;;;;5103117;28;20115;-58
2023/07/08 05:20:18;;;;;;;9.40;6.47;;;17.30;99.90;;;;;;5100585;28;20048;-57
2023/07/08 05:22:44;;;;;;;8.93;6.10;;;17.30;99.90;;;;;;5100090;28;20431;-59
2023/07/08 05:25:12;;;;;;;7.38;5.50;;;17.40;99.90;;;;;;5102430;28;20052;-57
2023/07/08 05:27:37;;;;;;;7.82;5.55;;;17.40;99.90;;;;;;5100705;28;20052;-58
2023/07/08 05:30:05;;;;;;;7.07;5.72;;;17.50;99.90;;;;;;5102606;28;20044;-58
2023/07/08 05:32:31;;;;;;;11.15;5.63;;;17.50;99.90;;;;;;5100644;28;20040;-58
2023/07/08 05:34:56;;;;;;;9.45;5.68;;;17.60;99.90;;;;;;5102753;28;20118;-58
2023/07/08 05:37:25;;;;;;;9.95;5.30;;;17.60;99.90;;;;;;5101744;28;20032;-58
2023/07/08 05:39:53;;;;;;;7.70;5.10;;;17.70;99.90;;;;;;5100848;28;20044;-58
2023/07/08 05:42:22;;;;;;;9.35;5.75;;;17.70;99.90;;;;;;5102167;28;20045;-57
2023/07/08 05:44:48;;;;;;;7.63;5.50;;;17.80;99.90;;;;;;5099155;28;20040;-58
2023/07/08 05:47:15;;;;;;;7.57;5.18;;;17.90;99.90;;;;;;5101194;28;20043;-57
2023/07/08 05:49:41;;;;;;;8.45;5.43;;;17.90;99.90;;;;;;5099090;28;20080;-58
2023/07/08 05:52:10;;;;;;;9.05;5.13;;;18.00;99.90;;;;;;5134840;27;20091;-58
2023/07/08 05:54:38;;;;;;;8.50;5.22;;;18.00;99.90;;;;;;5100408;28;20123;-57
2023/07/08 05:57:04;;;;;;;8.98;4.90;;;18.10;99.90;;;;;;5100335;28;20074;-58
2023/07/08 05:59:30;;;;;;;8.18;5.80;;;18.20;99.90;;;;;;5101788;28;20091;-58
2023/07/08 06:01:56;;;;;;;7.38;4.90;;;18.20;99.90;;;;;;5098342;28;20043;-58
2023/07/08 06:04:22;;;;;;;7.93;4.80;;;18.30;99.90;;;;;;5101919;28;20040;-58
2023/07/08 06:06:48;;;;;;;6.95;5.25;;;18.40;99.90;;;;;;5099936;28;20055;-58
2023/07/08 06:09:13;;;;;;;8.95;5.13;;;18.50;99.90;;;;;;5101835;28;20048;-59
2023/07/08 06:11:39;;;;;;;7.05;4.95;;;18.60;99.90;;;;;;5100778;28;20377;-58
2023/07/08 06:14:05;;;;;;;6.25;4.32;;;18.60;99.90;;;;;;5100036;28;20032;-59
2023/07/08 06:16:31;;;;;;;6.20;4.50;;;18.70;99.90;;;;;;5101319;28;20047;-58
2023/07/08 06:18:57;;;;;;;6.32;4.45;;;18.80;99.90;;;;;;5099404;28;20040;-58
2023/07/08 06:21:24;;;;;;;8.25;4.38;;;18.80;99.90;;;;;;5100359;28;20126;-58
2023/07/08 06:23:49;;;;;;;6.22;4.38;;;18.90;99.90;;;;;;5099080;28;20040;-59
2023/07/08 06:26:15;;;;;;;6.95;4.50;;;19.00;99.90;;;;;;5101449;28;20434;-58
2023/07/08 06:28:40;;;;;;;5.38;4.10;;;19.00;99.90;;;;;;5099904;28;20043;-58
2023/07/08 06:31:06;;;;;;;7.65;4.20;;;19.20;99.90;;;;;;5099876;28;20119;-58
2023/07/08 06:33:32;;;;;;;9.13;4.95;;;19.30;99.90;;;;;;5100783;28;20051;-58
2023/07/08 06:35:58;;;;;;;5.78;4.40;;;19.40;99.90;;;;;;5097540;28;20063;-59
2023/07/08 06:38:23;;;;;;;5.65;4.05;;;19.50;99.90;;;;;;5101138;28;20073;-58
2023/07/08 06:40:49;;;;;;;9.00;4.80;;;19.60;99.90;;;;;;5096847;28;20408;-58
2023/07/08 06:43:15;;;;;;;9.63;4.32;;;19.80;99.90;;;;;;5101029;28;20044;-57
2023/07/08 06:45:42;;;;;;;9.93;4.32;;;19.90;99.90;;;;;;5097853;28;20095;-58
2023/07/08 06:48:08;;;;;;;6.10;4.20;;;20.10;99.90;;;;;;5099744;28;20101;-58
2023/07/08 06:50:33;;;;;;;6.40;4.22;;;20.30;99.90;;;;;;5100420;28;20044;-57
2023/07/08 06:52:59;;;;;;;5.82;3.75;;;20.40;99.90;;;;;;5097161;28;20105;-58
2023/07/08 06:55:25;;;;;;;6.00;3.88;;;20.60;99.90;;;;;;5100459;28;20040;-58
2023/07/08 06:57:51;;;;;;;5.22;4.00;;;20.70;99.90;;;;;;5096693;28;20040;-59
2023/07/08 07:00:17;;;;;;;5.50;4.05;;;20.90;99.90;;;;;;5100716;28;20044;-58
2023/07/08 07:02:43;;;;;;;7.57;3.90;;;21.10;99.90;;;;;;5098700;28;20051;-58
2023/07/08 07:05:09;;;;;;;5.25;4.05;;;21.20;99.90;;;;;;5098037;28;20059;-58
2023/07/08 07:07:35;;;;;;;7.07;3.72;;;21.40;99.90;;;;;;5098488;28;20488;-58
2023/07/08 07:10:02;;;;;;;7.47;4.00;;;21.50;99.90;;;;;;5097777;28;20047;-58
2023/07/08 07:12:28;;;;;;;6.82;3.95;;;21.60;99.90;;;;;;5100159;28;20039;-58
2023/07/08 07:14:54;;;;;;;7.13;3.90;;;21.80;99.90;;;;;;5098063;28;20047;-59
2023/07/08 07:17:25;;;;;;;8.15;4.07;;;22.00;99.90;;;;;;5098693;28;20039;-58
2023/07/08 07:19:50;;;;;;;6.93;3.58;;;22.10;99.90;;;;;;5098488;28;20044;-58
2023/07/08 07:22:16;;;;;;;6.60;3.72;;;22.30;99.90;;;;;;5099622;28;20047;-58
2023/07/08 07:24:42;;;;;;;7.47;3.95;;;22.40;99.90;;;;;;5099407;28;20047;-58
2023/07/08 07:27:09;;;;;;;8.35;4.03;;;22.40;99.30;;;;;;5098217;28;20059;-59
2023/07/08 07:29:42;;;;;;;8.25;3.53;;;22.50;99.50;;;;;;5100104;28;20036;-58
2023/07/08 07:32:08;;;;;;;7.00;3.63;;;22.70;99.40;;;;;;5097868;28;20059;-58
2023/07/08 07:34:34;;;;;;;5.50;3.80;;;22.90;99.20;;;;;;5100142;28;20043;-58
2023/07/08 07:36:59;;;;;;;7.95;3.65;;;23.00;99.20;;;;;;5096762;28;20054;-58
2023/07/08 07:39:25;;;;;;;6.80;3.78;;;23.30;99.10;;;;;;5098874;28;20036;-59
2023/07/08 07:41:51;;;;;;;4.90;3.70;;;23.60;98.80;;;;;;5099389;28;20066;-58
2023/07/08 07:44:16;;;;;;;11.10;4.45;;;23.90;98.70;;;;;;5098129;28;20075;-60
2023/07/08 07:46:42;;;;;;;6.32;3.70;;;24.10;98.20;;;;;;5099039;28;20040;-59
2023/07/08 07:49:08;;;;;;;9.13;3.65;;;24.30;97.80;;;;;;5097180;28;20052;-59
2023/07/08 07:51:33;;;;;;;7.85;3.78;;;24.50;97.20;;;;;;5099590;28;20047;-58
2023/07/08 07:53:59;;;;;;;7.75;3.75;;;24.70;97.00;;;;;;5097649;28;20072;-58
2023/07/08 07:56:25;;;;;;;5.50;3.70;;;24.80;97.00;;;;;;5097779;28;20036;-59
2023/07/08 07:58:50;;;;;;;6.05;3.65;;;25.00;96.90;;;;;;5098794;28;20040;-58
2023/07/08 08:01:16;;;;;;;5.45;4.05;;;25.10;96.50;;;;;;5097998;28;20115;-59
2023/07/08 08:03:42;;;;;;;5.78;3.30;;;25.20;95.60;;;;;;5099238;28;20040;-59
2023/07/08 08:06:07;;;;;;;7.63;3.42;;;25.30;95.80;;;;;;5097746;28;20119;-59
2023/07/08 08:08:33;;;;;;;7.53;3.70;;;25.50;95.80;;;;;;5098073;28;20044;-58
2023/07/08 08:10:59;;;;;;;6.63;3.35;;;25.70;95.70;;;;;;5097234;28;20071;-59
2023/07/08 08:13:24;;;;;;;7.43;4.28;;;25.80;95.30;;;;;;5099420;28;20420;-59
2023/07/08 08:15:59;;;;;;;9.02;3.63;;;26.00;95.10;;;;;;5098495;28;20393;-59
2023/07/08 08:18:25;;;;;;;5.68;3.58;;;26.10;95.10;;;;;;5096481;28;20099;-59
2023/07/08 08:20:51;;;;;;;7.65;3.50;;;26.30;94.90;;;;;;5099465;28;20066;-58
2023/07/08 08:23:17;;;;;;;3.80;3.00;;;26.40;94.90;;;;;;5097628;28;20048;-59
2023/07/08 08:25:42;;;;;;;5.57;3.80;;;26.40;94.40;;;;;;5099418;28;20079;-59
2023/07/08 08:28:08;;;;;;;7.18;3.60;;;26.60;93.90;;;;;;5095958;28;20036;-59
2023/07/08 08:30:35;;;;;;;7.80;4.10;;;26.60;93.70;;;;;;5098041;28;20040;-59
2023/07/08 08:33:01;;;;;;;6.97;3.88;;;26.70;93.20;;;;;;5098243;28;20066;-59
2023/07/08 08:35:27;;;;;;;7.10;3.83;;;26.70;92.70;;;;;;5097865;28;20040;-60
2023/07/08 08:37:53;;;;;;;7.05;3.90;;;26.60;91.90;;;;;;5102514;28;20040;-59
2023/07/08 08:40:20;;;;;;;5.07;3.55;;;26.70;91.90;;;;;;5099610;28;20076;-59
2023/07/08 08:42:57;;;;;;;8.02;4.00;;;26.70;91.80;;;;;;5101866;28;20067;-60
2023/07/08 08:45:25;;;;;;;5.20;3.67;;;26.80;92.20;;;;;;5101197;28;20040;-60
2023/07/08 08:47:59;;;;;;;7.30;3.58;;;26.90;92.50;;;;;;5102508;28;20672;-60
2023/07/08 08:50:28;;;;;;;7.00;4.30;;;27.10;92.30;;;;;;5102806;28;20036;-60
2023/07/08 08:52:55;;;;;;;6.25;3.67;;;27.20;92.30;;;;;;5101041;28;20085;-60
2023/07/08 08:55:25;;;;;;;4.97;3.25;;;27.30;92.40;;;;;;5102883;28;20048;-59
2023/07/08 08:58:23;;;;;;;8.60;3.95;;;27.40;92.10;;;;;;5099069;28;20140;-60
2023/07/08 09:00:55;;;;;;;5.07;3.45;;;27.40;91.60;;;;;;5101922;28;20047;-60
2023/07/08 09:03:30;;;;;;;8.30;4.22;;;27.50;91.00;;;;;;5102490;28;20130;-61
2023/07/08 09:05:59;;;;;;;10.82;4.13;;;27.60;90.40;;;;;;5100370;28;20072;-57
2023/07/08 09:08:35;;;;;;;12.52;3.80;;;27.60;90.40;;;;;;5102669;28;20054;-60
2023/07/08 09:11:30;;;;;;;6.93;3.50;;;27.70;90.10;;;;;;5099831;28;20060;-57
2023/07/08 09:13:56;;;;;;;8.30;3.83;;;27.70;90.00;;;;;;5100676;28;20076;-59
2023/07/08 09:16:43;;;;;;;8.68;3.80;;;27.80;90.60;;;;;;5101914;28;20070;-59
2023/07/08 09:19:17;;;;;;;8.00;3.45;;;27.90;90.40;;;;;;5099978;28;20054;-59
2023/07/08 09:21:55;;;;;;;6.68;3.53;;;28.00;90.40;;;;;;5102846;28;20051;-59
2023/07/08 09:24:44;;;;;;;5.32;3.67;;;28.10;89.60;;;;;;5101183;28;20046;-57
2023/07/08 09:27:11;;;;;;;7.60;3.67;;;28.20;90.20;;;;;;5100127;28;20036;-59
2023/07/08 09:29:37;;;;;;;6.00;3.78;;;28.20;90.50;;;;;;5102053;28;20044;-59
2023/07/08 09:32:38;;;;;;;5.57;3.80;;;28.40;90.80;;;;;;5099600;28;20583;-59
2023/07/08 09:35:07;;;;;;;6.30;3.47;;;28.50;89.60;;;;;;5038295;28;20470;-59
2023/07/08 09:37:38;;;;;;;5.53;3.72;;;28.60;89.90;;;;;;5089821;28;20049;-59
2023/07/08 09:40:17;;;;;;;8.32;3.60;;;28.60;88.90;;;;;;5099492;28;20389;-59
2023/07/08 09:42:46;;;;;;;5.65;3.40;;;28.70;89.60;;;;;;5102116;28;20069;-59
2023/07/08 09:45:19;;;;;;;5.25;3.40;;;28.70;88.80;;;;;;5132489;27;20059;-58
2023/07/08 09:47:46;;;;;;;6.15;3.42;;;28.80;90.10;;;;;;5101098;28;20596;-59
2023/07/08 09:50:20;;;;;;;7.57;4.00;;;28.80;88.80;;;;;;5100861;28;20157;-59
2023/07/08 09:52:48;;;;;;;8.90;4.10;;;28.90;88.10;;;;;;5098045;28;20070;-59
2023/07/08 09:55:13;;;;;;;7.57;3.78;;;28.90;89.20;;;;;;5100234;28;20040;-60
2023/07/08 09:57:40;;;;;;;6.07;3.50;;;28.80;89.20;;;;;;5099062;28;20066;-60
2023/07/08 10:00:19;;;;;;;9.35;3.63;;;28.90;90.10;;;;;;5100204;28;20079;-59
2023/07/08 10:02:52;;;;;;;7.13;3.83;;;28.90;89.20;;;;;;5098707;28;20047;-60
2023/07/08 10:05:35;;;;;;;6.63;3.55;;;28.90;89.50;;;;;;5100220;28;20040;-60
2023/07/08 10:08:09;;;;;;;6.38;3.70;;;29.00;89.80;;;;;;5101207;28;20042;-60
2023/07/08 10:10:37;;;;;;;10.32;4.03;;;29.00;89.60;;;;;;5080542;28;20078;-60
2023/07/08 10:13:06;;;;;;;5.35;3.58;;;29.10;88.80;;;;;;5101466;28;20073;-60
2023/07/08 10:15:35;;;;;;;6.80;3.67;;;29.10;88.70;;;;;;5098708;28;20446;-59
2023/07/08 10:18:02;;;;;;;5.43;3.58;;;29.10;88.40;;;;;;5100687;28;20100;-60
2023/07/08 10:20:46;;;;;;;6.88;3.90;;;29.10;87.00;;;;;;5133610;27;20616;-59
2023/07/08 10:23:21;;;;;;;8.70;4.05;;;29.00;87.70;;;;;;5099321;28;20044;-60
2023/07/08 10:26:07;;;;;;;5.72;4.18;;;28.90;85.90;;;;;;5101235;28;20059;-59
2023/07/08 10:28:33;;;;;;;;;;;28.80;86.00;;;;;;5100190;28;20051;-59
2023/07/08 10:31:07;;;;;;;;;;;28.60;86.50;;;;;;5098966;28;19920;-60
2023/07/08 10:34:05;;;;;;;5.82;3.72;;;28.50;87.20;;;;;;5100850;28;19920;-59
2023/07/08 10:36:34;;;;;;;6.43;3.75;;;28.50;87.80;;;;;;5098668;28;20044;-58
2023/07/08 10:39:05;;;;;;;5.43;4.10;;;28.40;87.40;;;;;;5101074;28;20048;-60
2023/07/08 10:41:44;;;;;;;6.85;3.63;;;28.40;86.90;;;;;;5099459;28;20037;-59
2023/07/08 10:44:23;;;;;;;5.15;3.80;;;28.40;87.90;;;;;;5097411;28;20496;-60
2023/07/08 10:47:46;;;;;;;5.97;3.95;;;28.40;86.60;;;;;;5100473;28;20048;-60
2023/07/08 10:50:24;;;;;;;5.97;3.60;;;28.30;88.20;;;;;;5098502;28;20051;-59
2023/07/08 10:53:20;;;;;;;6.47;3.80;;;28.30;88.50;;;;;;5097315;28;20055;-60
2023/07/08 10:55:59;;;;;;;6.75;3.53;;;28.30;88.70;;;;;;5100713;28;20051;-60
2023/07/08 10:58:53;;;;;;;7.32;4.00;;;28.30;88.20;;;;;;5098586;28;20097;-59
2023/07/08 11:01:59;;;;;;;8.15;4.05;;;28.40;88.30;;;;;;5098645;28;20061;-60
2023/07/08 11:04:37;;;;;;;4.90;4.10;;;28.30;88.80;;;;;;5093236;27;20055;-59
2023/07/08 11:07:33;;;;;;;5.10;4.10;;;28.40;88.90;;;;;;5099096;28;20447;-58
2023/07/08 11:10:02;;;;;;;;;;;28.40;88.50;;;;;;5083029;28;20052;-60
2023/07/08 11:12:36;;;;;;;12.77;4.18;;;28.50;88.80;;;;;;5100295;28;20374;-59
2023/07/08 11:15:13;;;;;;;5.07;4.18;;;28.60;88.80;;;;;;5097493;28;20062;-59
2023/07/08 11:17:49;;;;;;;4.72;3.72;;;28.70;89.40;;;;;;5099948;28;20040;-59
2023/07/08 11:20:33;;;;;;;5.78;4.15;;;28.80;90.20;;;;;;5099646;28;20522;-59
2023/07/08 11:23:25;;;;;;;5.53;3.70;;;28.90;89.90;;;;;;5096474;28;20040;-59
2023/07/08 11:25:54;;;;;;;5.60;4.07;;;29.10;89.20;;;;;;5076304;28;20051;-59
2023/07/08 11:28:22;;;;;;;4.60;3.78;;;29.10;87.70;;;;;;5098371;28;20403;-58
2023/07/08 11:30:51;;;;;;;7.93;4.18;;;29.20;88.00;;;;;;5099199;28;20047;-59
2023/07/08 11:33:21;;;;;;;4.57;4.10;;;29.30;85.70;;;;;;5099573;28;20381;-59
2023/07/08 11:35:50;;;;;;;10.02;4.35;;;29.30;84.10;;;;;;5097669;28;20050;-59
2023/07/08 11:38:19;;;;;;;6.45;4.65;;;29.30;84.10;;;;;;5099725;28;20036;-58
2023/07/08 11:40:59;;;;;;;7.03;4.57;;;29.30;82.60;;;;;;5095982;28;20112;-59
2023/07/08 11:43:46;;;;;;;7.03;4.65;;;29.30;82.10;;;;;;5099589;28;20040;-58
2023/07/08 11:46:21;;;;;;;5.90;4.22;;;29.40;82.20;;;;;;5097887;28;20101;-59
2023/07/08 11:48:52;;;;;;;4.82;4.22;;;29.50;84.20;;;;;;5130464;27;20058;-59
2023/07/08 11:51:31;;;;;;;5.60;4.13;;;29.60;84.80;;;;;;5099864;28;20119;-59
2023/07/08 11:54:04;;;;;;;9.07;4.50;;;29.70;83.70;;;;;;5097667;28;20488;-59
2023/07/08 11:56:47;;;;;;;5.78;4.10;;;29.90;83.40;;;;;;5098831;28;20075;-60
2023/07/08 11:59:20;;;;;;;10.10;5.13;;;30.00;83.30;;;;;;5099329;28;20040;-60
2023/07/08 12:01:54;;;;;;;9.38;5.25;;;30.10;82.80;;;;;;5097209;28;20044;-60
2023/07/08 12:04:31;;;;;;;5.72;4.30;;;30.10;81.70;;;;;;5099621;28;20569;-60
2023/07/08 12:07:23;;;;;;;7.10;4.32;;;30.20;83.40;;;;;;5097776;28;20044;-59
2023/07/08 12:10:03;;;;;;;7.75;4.70;;;30.20;82.00;;;;;;5097447;28;20060;-60
2023/07/08 12:12:36;;;;;;;6.80;4.93;;;30.20;81.40;;;;;;5104859;28;20036;-59
2023/07/08 12:15:35;;;;;;;10.57;4.90;;;30.20;81.70;;;;;;5102474;28;20052;-60
2023/07/08 12:18:23;;;;;;;7.13;4.97;;;30.30;81.10;;;;;;5104964;28;20068;-60
2023/07/08 12:20:56;;;;;;;6.72;4.57;;;30.30;81.00;;;;;;5106053;28;20052;-59
2023/07/08 12:23:23;;;;;;;6.45;5.00;;;30.40;80.70;;;;;;5103537;28;20036;-60
2023/07/08 12:25:50;;;;;;;8.55;5.50;;;30.50;80.00;;;;;;5106076;28;20040;-60
2023/07/08 12:28:16;;;;;;;5.78;4.95;;;30.60;79.20;;;;;;5104344;28;20044;-59
2023/07/08 12:30:44;;;;;;;7.25;5.18;;;30.80;80.20;;;;;;5105360;28;20120;-60
2023/07/08 12:33:18;;;;;;;8.93;4.82;;;31.00;78.20;;;;;;5105617;28;20097;-60
2023/07/08 12:35:45;;;;;;;5.95;5.20;;;31.10;76.90;;;;;;5103882;28;20069;-60
2023/07/08 12:38:46;;;;;;;7.55;5.10;;;31.30;75.70;;;;;;5105896;28;20051;-59
2023/07/08 12:41:17;;;;;;;7.25;5.22;;;31.50;75.70;;;;;;5069307;28;20127;-59
2023/07/08 12:43:43;;;;;;;10.80;5.60;;;31.80;74.90;;;;;;5104811;28;20084;-59
2023/07/08 12:46:10;;;;;;;9.18;5.10;;;32.00;73.90;;;;;;5104959;28;20048;-59
2023/07/08 12:48:38;;;;;;;7.35;5.00;;;32.10;73.70;;;;;;5103362;28;20040;-59
2023/07/08 12:51:05;;;;;;;9.68;5.47;;;32.30;73.40;;;;;;5105842;28;20115;-60
2023/07/08 12:53:33;;;;;;;9.98;5.57;;;32.70;73.70;;;;;;5103346;28;20042;-59
2023/07/08 12:56:00;;;;;;;9.27;5.15;;;32.90;72.90;;;;;;5105519;28;20047;-59
2023/07/08 12:58:29;;;;;;;10.10;5.60;;;33.20;73.60;;;;;;5104159;28;20047;-59
2023/07/08 13:01:00;;;;;;;8.27;5.13;;;33.50;72.80;;;;;;5104585;28;20040;-59